sensor_id;sensor_type;location;lat;lon;timestamp;temperature;humidity
68098;DHT22;54886;47.036;15.466;2023-06-24T00:00:56;17.62;79.89
68098;DHT22;54886;47.036;15.466;2023-06-24T00:03:22;17.57;77.80
68098;DHT22;54886;47.036;15.466;2023-06-24T00:05:47;17.64;75.24
68098;DHT22;54886;47.036;15.466;2023-06-24T00:08:17;17.68;74.62
68098;DHT22;54886;47.036;15.466;2023-06-24T00:10:45;17.64;75.32
68098;DHT22;54886;47.036;15.466;2023-06-24T00:13:12;17.62;79.20
68098;DHT22;54886;47.036;15.466;2023-06-24T00:15:38;17.52;79.92
68098;DHT22;54886;47.036;15.466;2023-06-24T00:18:10;17.54;76.03
68098;DHT22;54886;47.036;15.466;2023-06-24T00:20:36;17.59;75.74
68098;DHT22;54886;47.036;15.466;2023-06-24T00:23:02;17.50;79.76
68098;DHT22;54886;47.036;15.466;2023-06-24T00:25:28;17.47;77.82
68098;DHT22;54886;47.036;15.466;2023-06-24T00:27:53;17.38;80.62
68098;DHT22;54886;47.036;15.466;2023-06-24T00:30:18;17.42;78.79
68098;DHT22;54886;47.036;15.466;2023-06-24T00:32:44;17.40;79.21
68098;DHT22;54886;47.036;15.466;2023-06-24T00:35:10;17.33;80.86
68098;DHT22;54886;47.036;15.466;2023-06-24T00:37:39;17.38;75.73
68098;DHT22;54886;47.036;15.466;2023-06-24T00:40:05;17.38;79.43
68098;DHT22;54886;47.036;15.466;2023-06-24T00:42:31;17.34;79.43
68098;DHT22;54886;47.036;15.466;2023-06-24T00:44:56;17.42;77.34
68098;DHT22;54886;47.036;15.466;2023-06-24T00:47:22;17.42;77.35
68098;DHT22;54886;47.036;15.466;2023-06-24T00:49:49;17.30;78.71
68098;DHT22;54886;47.036;15.466;2023-06-24T00:52:14;17.28;80.57
68098;DHT22;54886;47.036;15.466;2023-06-24T00:54:44;17.33;75.40
68098;DHT22;54886;47.036;15.466;2023-06-24T00:57:09;17.26;79.98
68098;DHT22;54886;47.036;15.466;2023-06-24T00:59:36;17.31;78.15
68098;DHT22;54886;47.036;15.466;2023-06-24T01:02:02;17.27;79.59
68098;DHT22;54886;47.036;15.466;2023-06-24T01:04:30;17.28;75.37
68098;DHT22;54886;47.036;15.466;2023-06-24T01:06:57;17.21;78.77
68098;DHT22;54886;47.036;15.466;2023-06-24T01:09:23;17.23;78.48
68098;DHT22;54886;47.036;15.466;2023-06-24T01:11:49;17.24;75.14
68098;DHT22;54886;47.036;15.466;2023-06-24T01:14:15;17.19;79.07
68098;DHT22;54886;47.036;15.466;2023-06-24T01:17:24;17.16;78.88
68098;DHT22;54886;47.036;15.466;2023-06-24T01:33:23;16.99;78.45
68098;DHT22;54886;47.036;15.466;2023-06-24T01:35:51;16.92;79.54
68098;DHT22;54886;47.036;15.466;2023-06-24T01:38:37;16.97;76.26
68098;DHT22;54886;47.036;15.466;2023-06-24T01:41:07;16.92;79.68
68098;DHT22;54886;47.036;15.466;2023-06-24T01:43:34;16.90;76.75
68098;DHT22;54886;47.036;15.466;2023-06-24T01:46:01;16.95;76.52
68098;DHT22;54886;47.036;15.466;2023-06-24T01:48:35;16.92;79.41
68098;DHT22;54886;47.036;15.466;2023-06-24T01:51:07;16.93;79.48
68098;DHT22;54886;47.036;15.466;2023-06-24T01:53:36;16.92;76.26
68098;DHT22;54886;47.036;15.466;2023-06-24T01:56:10;16.92;78.65
68098;DHT22;54886;47.036;15.466;2023-06-24T01:58:38;16.87;80.50
68098;DHT22;54886;47.036;15.466;2023-06-24T02:01:05;16.86;78.93
68098;DHT22;54886;47.036;15.466;2023-06-24T02:03:32;16.90;76.25
68098;DHT22;54886;47.036;15.466;2023-06-24T02:05:59;16.89;77.90
68098;DHT22;54886;47.036;15.466;2023-06-24T02:08:26;16.89;76.17
68098;DHT22;54886;47.036;15.466;2023-06-24T02:10:54;16.79;80.60
68098;DHT22;54886;47.036;15.466;2023-06-24T02:13:21;16.80;80.58
68098;DHT22;54886;47.036;15.466;2023-06-24T02:15:48;16.75;79.17
68098;DHT22;54886;47.036;15.466;2023-06-24T02:18:15;16.75;80.22
68098;DHT22;54886;47.036;15.466;2023-06-24T02:20:42;16.73;79.58
68098;DHT22;54886;47.036;15.466;2023-06-24T02:23:10;16.69;80.90
68098;DHT22;54886;47.036;15.466;2023-06-24T02:25:38;16.65;80.73
68098;DHT22;54886;47.036;15.466;2023-06-24T02:28:08;16.67;78.99
68098;DHT22;54886;47.036;15.466;2023-06-24T02:30:38;16.69;78.38
68098;DHT22;54886;47.036;15.466;2023-06-24T02:33:04;16.72;76.49
68098;DHT22;54886;47.036;15.466;2023-06-24T02:35:29;16.75;78.19
68098;DHT22;54886;47.036;15.466;2023-06-24T02:37:55;16.76;76.45
68098;DHT22;54886;47.036;15.466;2023-06-24T02:40:20;16.76;75.53
68098;DHT22;54886;47.036;15.466;2023-06-24T02:42:46;16.75;78.00
68098;DHT22;54886;47.036;15.466;2023-06-24T02:45:12;16.71;80.21
68098;DHT22;54886;47.036;15.466;2023-06-24T02:47:37;16.69;77.31
68098;DHT22;54886;47.036;15.466;2023-06-24T02:50:05;16.68;77.75
68098;DHT22;54886;47.036;15.466;2023-06-24T02:52:33;16.68;75.47
68098;DHT22;54886;47.036;15.466;2023-06-24T02:54:59;16.67;77.30
68098;DHT22;54886;47.036;15.466;2023-06-24T02:57:25;16.59;80.63
68098;DHT22;54886;47.036;15.466;2023-06-24T02:59:51;16.55;80.58
68098;DHT22;54886;47.036;15.466;2023-06-24T03:02:17;16.55;77.33
68098;DHT22;54886;47.036;15.466;2023-06-24T03:04:43;16.45;80.86
68098;DHT22;54886;47.036;15.466;2023-06-24T03:07:10;16.45;80.07
68098;DHT22;54886;47.036;15.466;2023-06-24T03:09:36;16.48;80.28
68098;DHT22;54886;47.036;15.466;2023-06-24T03:12:02;16.41;80.72
68098;DHT22;54886;47.036;15.466;2023-06-24T03:14:27;16.48;80.25
68098;DHT22;54886;47.036;15.466;2023-06-24T03:16:52;16.42;81.37
68098;DHT22;54886;47.036;15.466;2023-06-24T03:19:18;16.40;81.58
68098;DHT22;54886;47.036;15.466;2023-06-24T03:21:43;16.41;80.31
68098;DHT22;54886;47.036;15.466;2023-06-24T03:24:09;16.45;77.56
68098;DHT22;54886;47.036;15.466;2023-06-24T03:26:35;16.42;80.84
68098;DHT22;54886;47.036;15.466;2023-06-24T03:29:01;16.40;80.75
68098;DHT22;54886;47.036;15.466;2023-06-24T03:31:26;16.38;78.93
68098;DHT22;54886;47.036;15.466;2023-06-24T03:33:52;16.42;79.50
68098;DHT22;54886;47.036;15.466;2023-06-24T03:36:17;16.44;77.67
68098;DHT22;54886;47.036;15.466;2023-06-24T03:38:42;16.37;81.70
68098;DHT22;54886;47.036;15.466;2023-06-24T03:41:08;16.45;78.07
68098;DHT22;54886;47.036;15.466;2023-06-24T03:43:33;16.45;80.51
68098;DHT22;54886;47.036;15.466;2023-06-24T03:45:59;16.45;80.66
68098;DHT22;54886;47.036;15.466;2023-06-24T03:48:25;16.40;82.46
68098;DHT22;54886;47.036;15.466;2023-06-24T03:50:50;16.38;80.08
68098;DHT22;54886;47.036;15.466;2023-06-24T03:53:17;16.44;80.07
68098;DHT22;54886;47.036;15.466;2023-06-24T03:55:43;16.45;81.53
68098;DHT22;54886;47.036;15.466;2023-06-24T03:58:08;16.47;81.72
68098;DHT22;54886;47.036;15.466;2023-06-24T04:00:33;16.51;82.50
68098;DHT22;54886;47.036;15.466;2023-06-24T04:02:59;16.52;82.62
68098;DHT22;54886;47.036;15.466;2023-06-24T04:05:26;16.57;79.49
68098;DHT22;54886;47.036;15.466;2023-06-24T04:07:52;16.72;82.45
68098;DHT22;54886;47.036;15.466;2023-06-24T04:10:18;16.78;82.56
68098;DHT22;54886;47.036;15.466;2023-06-24T04:12:45;16.86;83.27
68098;DHT22;54886;47.036;15.466;2023-06-24T04:15:10;16.97;82.81
68098;DHT22;54886;47.036;15.466;2023-06-24T04:17:36;17.09;82.74
68098;DHT22;54886;47.036;15.466;2023-06-24T04:20:02;17.16;81.89
68098;DHT22;54886;47.036;15.466;2023-06-24T04:22:29;17.28;79.67
68098;DHT22;54886;47.036;15.466;2023-06-24T04:24:55;17.40;80.02
68098;DHT22;54886;47.036;15.466;2023-06-24T04:27:20;17.52;77.90
68098;DHT22;54886;47.036;15.466;2023-06-24T04:29:46;17.59;78.01
68098;DHT22;54886;47.036;15.466;2023-06-24T04:32:11;17.67;79.69
68098;DHT22;54886;47.036;15.466;2023-06-24T04:34:36;17.72;77.49
68098;DHT22;54886;47.036;15.466;2023-06-24T04:37:02;17.78;79.48
68098;DHT22;54886;47.036;15.466;2023-06-24T04:39:27;17.79;78.46
68098;DHT22;54886;47.036;15.466;2023-06-24T04:41:53;17.87;79.33
68098;DHT22;54886;47.036;15.466;2023-06-24T04:44:18;17.93;79.73
68098;DHT22;54886;47.036;15.466;2023-06-24T04:46:45;17.99;80.13
68098;DHT22;54886;47.036;15.466;2023-06-24T04:49:10;17.99;79.93
68098;DHT22;54886;47.036;15.466;2023-06-24T04:51:36;17.99;79.28
68098;DHT22;54886;47.036;15.466;2023-06-24T04:54:02;18.03;79.93
68098;DHT22;54886;47.036;15.466;2023-06-24T04:56:28;18.09;79.38
68098;DHT22;54886;47.036;15.466;2023-06-24T04:58:54;18.10;79.18
68098;DHT22;54886;47.036;15.466;2023-06-24T05:01:19;18.00;79.49
68098;DHT22;54886;47.036;15.466;2023-06-24T05:03:44;17.96;79.69
68098;DHT22;54886;47.036;15.466;2023-06-24T05:06:10;17.93;79.56
68098;DHT22;54886;47.036;15.466;2023-06-24T05:08:35;17.87;79.66
68098;DHT22;54886;47.036;15.466;2023-06-24T05:11:00;17.92;78.77
68098;DHT22;54886;47.036;15.466;2023-06-24T05:13:27;17.92;80.28
68098;DHT22;54886;47.036;15.466;2023-06-24T05:15:52;17.86;79.79
68098;DHT22;54886;47.036;15.466;2023-06-24T05:18:18;17.92;80.05
68098;DHT22;54886;47.036;15.466;2023-06-24T05:20:43;17.92;79.75
68098;DHT22;54886;47.036;15.466;2023-06-24T05:23:08;17.95;79.85
68098;DHT22;54886;47.036;15.466;2023-06-24T05:25:34;17.86;80.96
68098;DHT22;54886;47.036;15.466;2023-06-24T05:28:00;17.87;81.22
68098;DHT22;54886;47.036;15.466;2023-06-24T05:30:26;17.89;80.48
68098;DHT22;54886;47.036;15.466;2023-06-24T05:32:51;17.92;79.27
68098;DHT22;54886;47.036;15.466;2023-06-24T05:35:17;17.93;81.51
68098;DHT22;54886;47.036;15.466;2023-06-24T05:37:42;17.95;80.01
68098;DHT22;54886;47.036;15.466;2023-06-24T05:40:07;17.96;77.43
68098;DHT22;54886;47.036;15.466;2023-06-24T05:42:34;18.07;78.66
68098;DHT22;54886;47.036;15.466;2023-06-24T05:45:00;18.16;81.48
68098;DHT22;54886;47.036;15.466;2023-06-24T05:47:25;18.13;81.72
68098;DHT22;54886;47.036;15.466;2023-06-24T05:49:51;18.23;76.23
68098;DHT22;54886;47.036;15.466;2023-06-24T05:52:16;18.27;79.96
68098;DHT22;54886;47.036;15.466;2023-06-24T05:54:41;18.31;81.68
68098;DHT22;54886;47.036;15.466;2023-06-24T05:57:07;18.34;80.58
68098;DHT22;54886;47.036;15.466;2023-06-24T05:59:33;18.45;79.90
68098;DHT22;54886;47.036;15.466;2023-06-24T06:01:58;18.55;80.31
68098;DHT22;54886;47.036;15.466;2023-06-24T06:04:24;18.51;80.02
68098;DHT22;54886;47.036;15.466;2023-06-24T06:06:49;18.55;74.36
68098;DHT22;54886;47.036;15.466;2023-06-24T06:09:15;18.58;76.68
68098;DHT22;54886;47.036;15.466;2023-06-24T06:11:40;18.58;76.47
68098;DHT22;54886;47.036;15.466;2023-06-24T06:14:05;18.59;78.39
68098;DHT22;54886;47.036;15.466;2023-06-24T06:16:31;18.61;78.67
68098;DHT22;54886;47.036;15.466;2023-06-24T06:18:56;18.61;78.58
68098;DHT22;54886;47.036;15.466;2023-06-24T06:21:22;18.61;80.13
68098;DHT22;54886;47.036;15.466;2023-06-24T06:23:47;18.67;79.68
68098;DHT22;54886;47.036;15.466;2023-06-24T06:26:13;18.71;77.54
68098;DHT22;54886;47.036;15.466;2023-06-24T06:28:38;18.72;77.99
68098;DHT22;54886;47.036;15.466;2023-06-24T06:31:03;18.81;76.04
68098;DHT22;54886;47.036;15.466;2023-06-24T06:33:29;18.81;77.90
68098;DHT22;54886;47.036;15.466;2023-06-24T06:35:54;18.82;77.32
68098;DHT22;54886;47.036;15.466;2023-06-24T06:38:19;18.84;75.18
68098;DHT22;54886;47.036;15.466;2023-06-24T06:40:45;18.85;76.02
68098;DHT22;54886;47.036;15.466;2023-06-24T06:43:10;18.86;76.04
68098;DHT22;54886;47.036;15.466;2023-06-24T06:45:36;18.89;76.01
68098;DHT22;54886;47.036;15.466;2023-06-24T06:48:02;18.95;78.37
68098;DHT22;54886;47.036;15.466;2023-06-24T06:50:27;18.93;75.12
68098;DHT22;54886;47.036;15.466;2023-06-24T06:52:52;19.00;78.26
68098;DHT22;54886;47.036;15.466;2023-06-24T06:55:18;19.03;77.67
68098;DHT22;54886;47.036;15.466;2023-06-24T06:57:43;19.04;76.89
68098;DHT22;54886;47.036;15.466;2023-06-24T07:00:09;19.12;77.35
68098;DHT22;54886;47.036;15.466;2023-06-24T07:02:35;19.14;77.38
68098;DHT22;54886;47.036;15.466;2023-06-24T07:05:00;19.17;77.80
68098;DHT22;54886;47.036;15.466;2023-06-24T07:07:26;19.22;76.32
68098;DHT22;54886;47.036;15.466;2023-06-24T07:09:51;19.26;75.38
68098;DHT22;54886;47.036;15.466;2023-06-24T07:12:17;19.28;74.32
68098;DHT22;54886;47.036;15.466;2023-06-24T07:14:42;19.34;75.67
68098;DHT22;54886;47.036;15.466;2023-06-24T07:17:08;19.37;75.78
68098;DHT22;54886;47.036;15.466;2023-06-24T07:19:33;19.47;76.01
68098;DHT22;54886;47.036;15.466;2023-06-24T07:21:58;19.54;76.52
68098;DHT22;54886;47.036;15.466;2023-06-24T07:24:24;19.57;75.34
68098;DHT22;54886;47.036;15.466;2023-06-24T07:26:49;19.61;75.02
68098;DHT22;54886;47.036;15.466;2023-06-24T07:29:15;19.65;74.63
68098;DHT22;54886;47.036;15.466;2023-06-24T07:31:40;19.69;73.39
68098;DHT22;54886;47.036;15.466;2023-06-24T07:34:05;19.75;73.81
68098;DHT22;54886;47.036;15.466;2023-06-24T07:36:31;19.78;70.26
68098;DHT22;54886;47.036;15.466;2023-06-24T07:38:56;19.79;70.48
68098;DHT22;54886;47.036;15.466;2023-06-24T07:41:22;19.82;70.08
68098;DHT22;54886;47.036;15.466;2023-06-24T07:43:47;19.90;66.28
68098;DHT22;54886;47.036;15.466;2023-06-24T07:46:12;20.03;68.84
68098;DHT22;54886;47.036;15.466;2023-06-24T07:48:38;20.00;67.17
68098;DHT22;54886;47.036;15.466;2023-06-24T07:51:03;20.06;65.36
68098;DHT22;54886;47.036;15.466;2023-06-24T07:53:29;20.12;64.36
68098;DHT22;54886;47.036;15.466;2023-06-24T07:55:54;20.23;65.27
68098;DHT22;54886;47.036;15.466;2023-06-24T07:58:19;20.37;66.69
68098;DHT22;54886;47.036;15.466;2023-06-24T08:00:45;20.41;64.57
68098;DHT22;54886;47.036;15.466;2023-06-24T08:03:12;20.51;64.56
68098;DHT22;54886;47.036;15.466;2023-06-24T08:05:38;20.61;64.02
68098;DHT22;54886;47.036;15.466;2023-06-24T08:08:05;20.74;63.67
68098;DHT22;54886;47.036;15.466;2023-06-24T08:10:30;20.82;63.58
68098;DHT22;54886;47.036;15.466;2023-06-24T08:12:55;20.82;60.59
68098;DHT22;54886;47.036;15.466;2023-06-24T08:15:21;20.85;60.24
68098;DHT22;54886;47.036;15.466;2023-06-24T08:17:51;20.92;60.70
68098;DHT22;54886;47.036;15.466;2023-06-24T08:20:17;20.93;61.80
68098;DHT22;54886;47.036;15.466;2023-06-24T08:22:42;20.96;60.64
68098;DHT22;54886;47.036;15.466;2023-06-24T08:25:08;21.06;59.81
68098;DHT22;54886;47.036;15.466;2023-06-24T08:27:33;21.10;56.61
68098;DHT22;54886;47.036;15.466;2023-06-24T08:29:59;21.13;58.42
68098;DHT22;54886;47.036;15.466;2023-06-24T08:32:24;21.16;57.89
68098;DHT22;54886;47.036;15.466;2023-06-24T08:34:50;21.19;58.63
68098;DHT22;54886;47.036;15.466;2023-06-24T08:37:15;21.36;59.86
68098;DHT22;54886;47.036;15.466;2023-06-24T08:39:40;21.40;59.13
68098;DHT22;54886;47.036;15.466;2023-06-24T08:42:06;21.43;59.29
68098;DHT22;54886;47.036;15.466;2023-06-24T08:44:31;21.39;58.43
68098;DHT22;54886;47.036;15.466;2023-06-24T08:46:57;21.39;57.59
68098;DHT22;54886;47.036;15.466;2023-06-24T08:51:51;21.37;58.70
68098;DHT22;54886;47.036;15.466;2023-06-24T08:54:19;21.36;59.33
68098;DHT22;54886;47.036;15.466;2023-06-24T08:56:45;21.37;58.55
68098;DHT22;54886;47.036;15.466;2023-06-24T08:59:10;21.37;59.33
68098;DHT22;54886;47.036;15.466;2023-06-24T09:01:36;21.39;59.53
68098;DHT22;54886;47.036;15.466;2023-06-24T09:04:01;21.39;56.84
68098;DHT22;54886;47.036;15.466;2023-06-24T09:06:27;21.37;57.52
68098;DHT22;54886;47.036;15.466;2023-06-24T09:08:56;21.34;57.11
68098;DHT22;54886;47.036;15.466;2023-06-24T09:11:26;21.34;56.42
68098;DHT22;54886;47.036;15.466;2023-06-24T09:13:56;21.33;57.64
68098;DHT22;54886;47.036;15.466;2023-06-24T09:16:22;21.37;58.03
68098;DHT22;54886;47.036;15.466;2023-06-24T09:18:48;21.43;59.77
68098;DHT22;54886;47.036;15.466;2023-06-24T09:21:25;21.50;58.80
68098;DHT22;54886;47.036;15.466;2023-06-24T09:23:58;21.57;58.84
68098;DHT22;54886;47.036;15.466;2023-06-24T09:26:27;21.58;58.50
68098;DHT22;54886;47.036;15.466;2023-06-24T09:28:54;21.62;57.37
68098;DHT22;54886;47.036;15.466;2023-06-24T09:31:20;21.67;57.23
68098;DHT22;54886;47.036;15.466;2023-06-24T09:33:48;21.69;57.51
68098;DHT22;54886;47.036;15.466;2023-06-24T09:36:16;21.69;55.69
68098;DHT22;54886;47.036;15.466;2023-06-24T09:38:44;21.68;57.71
68098;DHT22;54886;47.036;15.466;2023-06-24T09:41:10;21.71;56.54
68098;DHT22;54886;47.036;15.466;2023-06-24T09:43:37;21.68;55.98
68098;DHT22;54886;47.036;15.466;2023-06-24T09:46:05;21.68;57.71
68098;DHT22;54886;47.036;15.466;2023-06-24T09:48:30;21.73;57.65
68098;DHT22;54886;47.036;15.466;2023-06-24T09:51:00;21.75;56.82
68098;DHT22;54886;47.036;15.466;2023-06-24T09:53:33;21.78;56.81
68098;DHT22;54886;47.036;15.466;2023-06-24T09:56:01;21.81;57.54
68098;DHT22;54886;47.036;15.466;2023-06-24T09:58:28;21.84;58.28
68098;DHT22;54886;47.036;15.466;2023-06-24T10:00:57;21.85;56.36
68098;DHT22;54886;47.036;15.466;2023-06-24T10:03:23;21.91;55.47
68098;DHT22;54886;47.036;15.466;2023-06-24T10:05:50;21.95;55.48
68098;DHT22;54886;47.036;15.466;2023-06-24T10:08:15;21.91;54.07
68098;DHT22;54886;47.036;15.466;2023-06-24T10:10:41;21.94;54.16
68098;DHT22;54886;47.036;15.466;2023-06-24T10:13:06;21.96;55.26
68098;DHT22;54886;47.036;15.466;2023-06-24T10:15:33;21.98;55.68
68098;DHT22;54886;47.036;15.466;2023-06-24T10:18:02;22.01;56.19
68098;DHT22;54886;47.036;15.466;2023-06-24T10:20:29;22.06;56.47
68098;DHT22;54886;47.036;15.466;2023-06-24T10:22:55;22.12;56.59
68098;DHT22;54886;47.036;15.466;2023-06-24T10:25:20;22.12;55.36
68098;DHT22;54886;47.036;15.466;2023-06-24T10:27:53;22.17;56.73
68098;DHT22;54886;47.036;15.466;2023-06-24T10:30:19;22.19;55.49
68098;DHT22;54886;47.036;15.466;2023-06-24T10:32:51;22.26;57.95
68098;DHT22;54886;47.036;15.466;2023-06-24T10:35:28;22.33;56.50
68098;DHT22;54886;47.036;15.466;2023-06-24T10:38:00;22.33;55.14
68098;DHT22;54886;47.036;15.466;2023-06-24T10:40:35;22.35;52.00
68098;DHT22;54886;47.036;15.466;2023-06-24T10:45:51;22.29;51.49
68098;DHT22;54886;47.036;15.466;2023-06-24T10:48:17;22.35;51.66
68098;DHT22;54886;47.036;15.466;2023-06-24T10:50:46;22.33;51.28
68098;DHT22;54886;47.036;15.466;2023-06-24T10:53:12;22.28;51.59
68098;DHT22;54886;47.036;15.466;2023-06-24T10:55:38;22.24;53.42
68098;DHT22;54886;47.036;15.466;2023-06-24T10:58:11;22.22;53.08
68098;DHT22;54886;47.036;15.466;2023-06-24T11:00:38;22.19;51.97
68098;DHT22;54886;47.036;15.466;2023-06-24T11:03:14;22.19;51.98
68098;DHT22;54886;47.036;15.466;2023-06-24T11:05:41;22.23;52.42
68098;DHT22;54886;47.036;15.466;2023-06-24T11:08:10;22.20;51.76
68098;DHT22;54886;47.036;15.466;2023-06-24T11:10:46;22.19;52.35
68098;DHT22;54886;47.036;15.466;2023-06-24T11:13:13;22.19;53.57
68098;DHT22;54886;47.036;15.466;2023-06-24T11:15:41;22.17;52.18
68098;DHT22;54886;47.036;15.466;2023-06-24T11:18:08;22.20;51.77
68098;DHT22;54886;47.036;15.466;2023-06-24T11:20:36;22.19;53.01
68098;DHT22;54886;47.036;15.466;2023-06-24T11:23:02;22.17;52.11
68098;DHT22;54886;47.036;15.466;2023-06-24T11:25:27;22.19;52.75
68098;DHT22;54886;47.036;15.466;2023-06-24T11:27:53;22.19;53.20
68098;DHT22;54886;47.036;15.466;2023-06-24T11:30:18;22.22;53.19
68098;DHT22;54886;47.036;15.466;2023-06-24T11:32:44;22.22;53.50
68098;DHT22;54886;47.036;15.466;2023-06-24T11:35:11;22.32;53.30
68098;DHT22;54886;47.036;15.466;2023-06-24T11:37:41;22.30;51.76
68098;DHT22;54886;47.036;15.466;2023-06-24T11:40:09;22.29;50.24
68098;DHT22;54886;47.036;15.466;2023-06-24T11:42:39;22.32;50.83
68098;DHT22;54886;47.036;15.466;2023-06-24T11:45:07;22.29;51.73
68098;DHT22;54886;47.036;15.466;2023-06-24T11:47:36;22.29;51.96
68098;DHT22;54886;47.036;15.466;2023-06-24T11:50:03;22.35;53.48
68098;DHT22;54886;47.036;15.466;2023-06-24T11:55:00;22.46;54.09
68098;DHT22;54886;47.036;15.466;2023-06-24T11:58:01;22.53;54.03
68098;DHT22;54886;47.036;15.466;2023-06-24T12:00:30;22.60;53.65
68098;DHT22;54886;47.036;15.466;2023-06-24T12:02:57;22.64;53.34
68098;DHT22;54886;47.036;15.466;2023-06-24T12:05:30;22.64;54.16
68098;DHT22;54886;47.036;15.466;2023-06-24T12:08:02;22.78;53.45
68098;DHT22;54886;47.036;15.466;2023-06-24T12:10:29;22.79;53.37
68098;DHT22;54886;47.036;15.466;2023-06-24T12:12:57;22.83;52.13
68098;DHT22;54886;47.036;15.466;2023-06-24T12:15:23;22.83;51.97
68098;DHT22;54886;47.036;15.466;2023-06-24T12:17:48;22.81;52.39
68098;DHT22;54886;47.036;15.466;2023-06-24T12:20:15;22.81;51.77
68098;DHT22;54886;47.036;15.466;2023-06-24T12:22:41;22.84;51.12
68098;DHT22;54886;47.036;15.466;2023-06-24T12:25:07;22.81;51.07
68098;DHT22;54886;47.036;15.466;2023-06-24T12:27:32;22.81;52.42
68098;DHT22;54886;47.036;15.466;2023-06-24T12:29:59;22.81;51.95
68098;DHT22;54886;47.036;15.466;2023-06-24T12:32:24;22.85;53.30
68098;DHT22;54886;47.036;15.466;2023-06-24T12:34:50;22.95;51.64
68098;DHT22;54886;47.036;15.466;2023-06-24T12:37:15;22.96;51.93
68098;DHT22;54886;47.036;15.466;2023-06-24T12:39:40;23.01;52.22
68098;DHT22;54886;47.036;15.466;2023-06-24T12:42:06;23.01;51.69
68098;DHT22;54886;47.036;15.466;2023-06-24T12:44:31;23.01;51.19
68098;DHT22;54886;47.036;15.466;2023-06-24T12:46:57;23.02;50.00
68098;DHT22;54886;47.036;15.466;2023-06-24T12:49:22;23.01;50.45
68098;DHT22;54886;47.036;15.466;2023-06-24T12:51:48;22.96;50.79
68098;DHT22;54886;47.036;15.466;2023-06-24T12:54:13;22.98;48.72
68098;DHT22;54886;47.036;15.466;2023-06-24T12:56:38;22.91;50.09
68098;DHT22;54886;47.036;15.466;2023-06-24T12:59:04;22.84;50.06
68098;DHT22;54886;47.036;15.466;2023-06-24T13:01:31;22.84;51.38
68098;DHT22;54886;47.036;15.466;2023-06-24T13:03:57;22.81;51.73
68098;DHT22;54886;47.036;15.466;2023-06-24T13:06:23;22.79;51.03
68098;DHT22;54886;47.036;15.466;2023-06-24T13:08:48;22.81;51.57
68098;DHT22;54886;47.036;15.466;2023-06-24T13:11:13;22.83;49.67
68098;DHT22;54886;47.036;15.466;2023-06-24T13:13:39;22.78;49.49
68098;DHT22;54886;47.036;15.466;2023-06-24T13:16:04;22.74;49.40
68098;DHT22;54886;47.036;15.466;2023-06-24T13:18:29;22.72;50.55
68098;DHT22;54886;47.036;15.466;2023-06-24T13:20:55;22.72;51.59
68098;DHT22;54886;47.036;15.466;2023-06-24T13:23:20;22.75;51.52
68098;DHT22;54886;47.036;15.466;2023-06-24T13:25:46;22.79;51.56
68098;DHT22;54886;47.036;15.466;2023-06-24T13:28:11;22.83;50.24
68098;DHT22;54886;47.036;15.466;2023-06-24T13:30:36;22.81;50.98
68098;DHT22;54886;47.036;15.466;2023-06-24T13:33:02;22.75;50.79
68098;DHT22;54886;47.036;15.466;2023-06-24T13:35:27;22.74;51.36
68098;DHT22;54886;47.036;15.466;2023-06-24T13:37:52;22.71;50.93
68098;DHT22;54886;47.036;15.466;2023-06-24T13:40:18;22.68;50.46
68098;DHT22;54886;47.036;15.466;2023-06-24T13:42:43;22.64;50.65
68098;DHT22;54886;47.036;15.466;2023-06-24T13:45:09;22.65;51.24
68098;DHT22;54886;47.036;15.466;2023-06-24T13:47:35;22.64;49.98
68098;DHT22;54886;47.036;15.466;2023-06-24T13:50:00;22.60;50.28
68098;DHT22;54886;47.036;15.466;2023-06-24T13:52:26;22.61;50.72
68098;DHT22;54886;47.036;15.466;2023-06-24T13:54:52;22.58;50.38
68098;DHT22;54886;47.036;15.466;2023-06-24T13:57:17;22.61;50.20
68098;DHT22;54886;47.036;15.466;2023-06-24T13:59:43;22.60;50.51
68098;DHT22;54886;47.036;15.466;2023-06-24T14:02:08;22.61;49.98
68098;DHT22;54886;47.036;15.466;2023-06-24T14:04:35;22.61;51.35
68098;DHT22;54886;47.036;15.466;2023-06-24T14:07:00;22.61;50.62
68098;DHT22;54886;47.036;15.466;2023-06-24T14:09:27;22.58;49.90
68098;DHT22;54886;47.036;15.466;2023-06-24T14:11:53;22.56;50.85
68098;DHT22;54886;47.036;15.466;2023-06-24T14:14:18;22.54;50.16
68098;DHT22;54886;47.036;15.466;2023-06-24T14:16:44;22.56;50.52
68098;DHT22;54886;47.036;15.466;2023-06-24T14:19:09;22.56;50.24
68098;DHT22;54886;47.036;15.466;2023-06-24T14:21:35;22.51;50.07
68098;DHT22;54886;47.036;15.466;2023-06-24T14:24:01;22.53;50.84
68098;DHT22;54886;47.036;15.466;2023-06-24T14:26:26;22.51;50.31
68098;DHT22;54886;47.036;15.466;2023-06-24T14:28:51;22.51;51.47
68098;DHT22;54886;47.036;15.466;2023-06-24T14:31:17;22.53;52.25
68098;DHT22;54886;47.036;15.466;2023-06-24T14:33:42;22.58;52.70
68098;DHT22;54886;47.036;15.466;2023-06-24T14:36:08;22.57;51.63
68098;DHT22;54886;47.036;15.466;2023-06-24T14:38:33;22.58;51.22
68098;DHT22;54886;47.036;15.466;2023-06-24T14:40:58;22.60;50.77
68098;DHT22;54886;47.036;15.466;2023-06-24T14:43:24;22.61;52.11
68098;DHT22;54886;47.036;15.466;2023-06-24T14:45:49;22.61;51.77
68098;DHT22;54886;47.036;15.466;2023-06-24T14:48:15;22.67;52.52
68098;DHT22;54886;47.036;15.466;2023-06-24T14:50:40;22.65;51.94
68098;DHT22;54886;47.036;15.466;2023-06-24T14:53:06;22.72;51.37
68098;DHT22;54886;47.036;15.466;2023-06-24T14:55:31;22.74;51.48
68098;DHT22;54886;47.036;15.466;2023-06-24T14:57:59;22.84;51.30
68098;DHT22;54886;47.036;15.466;2023-06-24T15:00:26;22.94;50.86
68098;DHT22;54886;47.036;15.466;2023-06-24T15:02:52;22.99;51.47
68098;DHT22;54886;47.036;15.466;2023-06-24T15:05:17;23.06;50.01
68098;DHT22;54886;47.036;15.466;2023-06-24T15:07:43;23.12;50.19
68098;DHT22;54886;47.036;15.466;2023-06-24T15:10:08;23.16;50.95
68098;DHT22;54886;47.036;15.466;2023-06-24T15:12:34;23.13;50.02
68098;DHT22;54886;47.036;15.466;2023-06-24T15:14:59;23.11;50.46
68098;DHT22;54886;47.036;15.466;2023-06-24T15:17:25;23.11;50.32
68098;DHT22;54886;47.036;15.466;2023-06-24T15:19:51;23.08;50.83
68098;DHT22;54886;47.036;15.466;2023-06-24T15:22:17;23.01;50.41
68098;DHT22;54886;47.036;15.466;2023-06-24T15:24:42;22.99;50.67
68098;DHT22;54886;47.036;15.466;2023-06-24T15:27:09;23.03;50.15
68098;DHT22;54886;47.036;15.466;2023-06-24T15:29:35;22.99;50.12
68098;DHT22;54886;47.036;15.466;2023-06-24T15:32:00;22.95;49.04